Time;durP1;ratioP1;P1;durP2;ratioP2;P2;SDS_P1;SDS_P2;PMS_P1;PMS_P2;Temp;Humidity;BMP_temperature;BMP_pressure;BME280_temperature;BME280_humidity;BME280_pressure;Samples;Min_cycle;Max_cycle;Signal;HPM_P1;HPM_P2
2022/04/01 00:03:15;;;;;;;26.27;13.55;;;3.10;99.90;;;;;;6765966;87;20880;-82
2022/04/01 00:13:15;;;;;;;26.15;14.07;;;3.20;99.90;;;;;;6746276;88;20171;-81
2022/04/01 00:23:16;;;;;;;23.98;13.77;;;3.30;99.90;;;;;;6729053;88;20266;-82
2022/04/01 00:33:16;;;;;;;19.90;11.40;;;3.20;99.90;;;;;;6711801;88;20171;-81
2022/04/01 00:43:30;;;;;;;21.40;11.73;;;3.10;99.90;;;;;;6713625;88;20271;-82
2022/04/01 00:53:32;;;;;;;23.58;12.88;;;3.30;99.90;;;;;;6742307;88;20353;-81
2022/04/01 01:03:32;;;;;;;21.12;12.30;;;3.10;99.90;;;;;;6748495;88;20226;-82
2022/04/01 01:13:33;;;;;;;21.48;12.43;;;3.10;99.90;;;;;;6731492;88;20181;-81
2022/04/01 01:23:34;;;;;;;22.13;13.07;;;3.10;99.90;;;;;;6731131;88;20535;-82
2022/04/01 01:33:35;;;;;;;20.27;12.48;;;3.10;99.90;;;;;;6731016;88;20158;-82
2022/04/01 01:43:35;;;;;;;23.23;13.45;;;3.00;99.90;;;;;;6760331;87;20740;-83
2022/04/01 02:03:56;;;;;;;28.23;15.75;;;3.20;99.90;;;;;;6767817;87;20199;-85
2022/04/01 02:13:58;;;;;;;31.90;16.48;;;3.10;99.90;;;;;;6767927;87;20202;-83
2022/04/01 02:24:00;;;;;;;36.35;18.15;;;3.20;99.90;;;;;;6765601;87;20379;-84
2022/04/01 02:34:01;;;;;;;29.65;16.70;;;3.20;99.90;;;;;;6765739;87;20195;-81
2022/04/01 02:44:08;;;;;;;30.55;16.20;;;3.10;99.90;;;;;;6661373;88;20204;-81
2022/04/01 03:04:12;;;;;;;32.17;18.45;;;3.20;99.90;;;;;;6727167;88;20237;-84
2022/04/01 03:14:13;;;;;;;41.42;19.75;;;3.20;99.90;;;;;;6730044;88;20227;-83
2022/04/01 03:24:14;;;;;;;37.67;18.95;;;3.20;99.90;;;;;;6730128;88;20212;-82
2022/04/01 03:34:14;;;;;;;26.42;14.65;;;3.40;99.90;;;;;;6736302;88;20483;-82
2022/04/01 03:44:15;;;;;;;16.48;10.52;;;3.70;99.90;;;;;;6745856;88;20158;-83
2022/04/01 03:54:17;;;;;;;15.27;9.02;;;3.90;99.90;;;;;;6749241;88;20158;-83
2022/04/01 04:04:20;;;;;;;10.45;7.15;;;3.80;99.90;;;;;;6765684;88;20172;-84
2022/04/01 04:14:24;;;;;;;9.38;6.50;;;3.90;99.90;;;;;;6766558;88;20203;-83
2022/04/01 04:24:29;;;;;;;10.95;7.00;;;3.80;99.90;;;;;;6768112;88;20181;-83
2022/04/01 04:34:37;;;;;;;11.48;7.03;;;3.80;99.90;;;;;;6768726;88;20732;-83
2022/04/01 04:44:38;;;;;;;10.05;6.72;;;3.70;99.90;;;;;;6768230;88;20177;-84
2022/04/01 04:54:40;;;;;;;10.40;6.50;;;3.60;99.90;;;;;;6768142;88;20762;-82
2022/04/01 05:05:01;;;;;;;9.70;6.47;;;3.50;99.90;;;;;;6767654;88;20169;-84
2022/04/01 05:15:07;;;;;;;10.10;6.95;;;3.50;99.90;;;;;;6767457;88;20176;-82
2022/04/01 05:25:10;;;;;;;9.70;5.83;;;3.40;99.90;;;;;;6766923;88;20176;-83
2022/04/01 05:35:10;;;;;;;11.05;6.32;;;3.30;99.90;;;;;;6767254;88;20196;-84
2022/04/01 05:45:12;;;;;;;10.07;5.70;;;3.30;99.90;;;;;;6766555;88;20763;-82
2022/04/01 05:55:19;;;;;;;9.00;6.10;;;3.30;99.90;;;;;;6767207;88;20505;-84
2022/04/01 06:05:29;;;;;;;10.65;6.30;;;3.40;99.90;;;;;;6766838;88;20238;-83
2022/04/01 06:15:33;;;;;;;9.18;6.10;;;3.30;99.90;;;;;;6767186;88;20172;-82
2022/04/01 06:35:44;;;;;;;9.65;6.30;;;3.20;99.90;;;;;;6751283;88;20221;-81
2022/04/01 06:45:44;;;;;;;8.20;5.87;;;3.20;99.90;;;;;;6714058;88;20155;-81
2022/04/01 06:55:46;;;;;;;8.95;5.70;;;3.20;99.90;;;;;;6710794;88;20155;-83
2022/04/01 07:05:48;;;;;;;7.25;5.10;;;3.20;99.90;;;;;;6713704;88;20212;-82
2022/04/01 07:15:50;;;;;;;7.95;4.28;;;3.10;99.90;;;;;;6742786;88;20159;-82
2022/04/01 07:25:51;;;;;;;11.27;5.10;;;3.10;99.90;;;;;;6750360;88;20237;-82
2022/04/01 07:35:52;;;;;;;8.35;4.47;;;3.10;99.90;;;;;;6750305;88;20159;-82
2022/04/01 07:45:53;;;;;;;6.43;4.22;;;3.10;99.90;;;;;;6750083;88;20714;-82
2022/04/01 07:55:53;;;;;;;5.62;4.10;;;3.00;99.90;;;;;;6733315;88;20220;-82
2022/04/01 08:05:54;;;;;;;5.43;3.50;;;3.00;99.90;;;;;;6733133;88;20761;-83
2022/04/01 08:15:54;;;;;;;6.47;3.45;;;3.00;99.90;;;;;;6733176;88;20902;-82
2022/04/01 08:25:55;;;;;;;4.93;3.25;;;3.00;99.90;;;;;;6734656;88;20202;-83
2022/04/01 08:35:56;;;;;;;4.45;2.90;;;3.10;99.90;;;;;;6735083;88;20213;-82
2022/04/01 08:46:00;;;;;;;4.47;2.90;;;3.20;99.90;;;;;;6734819;88;20859;-82
2022/04/01 08:56:21;;;;;;;5.43;3.22;;;3.20;99.90;;;;;;6745826;77;20675;-81
2022/04/01 09:06:21;;;;;;;4.80;2.80;;;3.30;99.90;;;;;;6778217;88;20675;-81
2022/04/01 09:16:27;;;;;;;3.47;2.45;;;3.50;99.90;;;;;;6777800;87;20171;-81
2022/04/01 09:26:37;;;;;;;5.25;2.95;;;3.60;99.90;;;;;;6776129;88;20247;-81
2022/04/01 09:36:41;;;;;;;4.90;2.95;;;3.60;99.90;;;;;;6779014;88;20694;-81
2022/04/01 09:46:56;;;;;;;3.92;2.53;;;3.60;99.90;;;;;;6779468;88;20201;-80
2022/04/01 09:56:58;;;;;;;3.85;2.50;;;3.70;99.90;;;;;;6778756;87;20227;-80
2022/04/01 10:07:01;;;;;;;4.05;2.47;;;3.70;99.90;;;;;;6774332;88;20776;-80
2022/04/01 10:17:04;;;;;;;4.80;2.70;;;3.70;99.90;;;;;;6777634;88;20177;-81
2022/04/01 10:27:13;;;;;;;3.60;2.50;;;3.70;99.90;;;;;;6774581;88;20225;-79
2022/04/01 10:37:16;;;;;;;4.95;2.60;;;3.80;99.90;;;;;;6779313;88;20221;-79
2022/04/01 10:51:36;;;;;;;4.68;2.75;;;3.70;99.90;;;;;;6762409;87;20200;-81
2022/04/01 10:58:10;;;;;;;;;;;3.60;99.90;;;;;;6779852;88;20694;-80
2022/04/01 11:08:23;;;;;;;5.05;2.33;;;3.60;99.90;;;;;;6779421;88;20060;-80
2022/04/01 11:18:27;;;;;;;4.03;2.05;;;3.50;99.90;;;;;;6777402;88;20175;-81
2022/04/01 11:28:30;;;;;;;3.90;2.33;;;3.50;99.90;;;;;;6760111;88;20254;-81
2022/04/01 11:38:31;;;;;;;4.00;2.05;;;3.60;99.90;;;;;;6760329;88;20188;-80
2022/04/01 11:48:51;;;;;;;3.47;2.15;;;3.90;99.90;;;;;;6760139;88;20754;-80
2022/04/01 11:58:58;;;;;;;2.90;1.83;;;4.00;99.90;;;;;;6762421;88;20209;-80
2022/04/01 12:09:07;;;;;;;3.00;1.73;;;4.10;99.90;;;;;;6775858;88;20206;-80
2022/04/01 12:19:16;;;;;;;3.12;1.80;;;3.90;99.90;;;;;;6776245;87;20318;-81
2022/04/01 12:29:23;;;;;;;4.05;1.95;;;4.00;99.90;;;;;;6781063;87;20203;-80
2022/04/01 12:39:24;;;;;;;2.30;1.70;;;4.00;99.90;;;;;;6782256;87;20190;-80
2022/04/01 12:49:27;;;;;;;3.70;1.90;;;3.80;99.90;;;;;;6780792;87;20210;-79
2022/04/01 12:59:49;;;;;;;3.47;1.80;;;3.90;99.90;;;;;;6781046;88;20240;-81
2022/04/01 13:09:55;;;;;;;3.22;2.00;;;3.70;99.90;;;;;;6780438;87;20224;-81
2022/04/01 13:19:56;;;;;;;2.70;1.87;;;3.80;99.90;;;;;;6780698;88;20195;-80
2022/04/01 13:29:58;;;;;;;3.67;1.98;;;4.00;99.90;;;;;;6777601;88;20278;-81
2022/04/01 13:40:00;;;;;;;2.72;1.75;;;4.10;99.90;;;;;;6777097;88;20168;-81
2022/04/01 13:50:01;;;;;;;2.97;1.92;;;3.60;99.90;;;;;;6777180;88;20265;-82
2022/04/01 14:00:03;;;;;;;3.62;2.03;;;3.40;99.90;;;;;;6776673;88;20188;-81
2022/04/01 14:10:04;;;;;;;4.32;2.35;;;3.50;99.90;;;;;;6775750;88;20689;-82
2022/04/01 14:20:05;;;;;;;3.85;2.50;;;3.40;99.90;;;;;;6774624;88;20204;-82
2022/04/01 14:30:18;;;;;;;4.12;2.70;;;3.60;99.90;;;;;;6755266;88;20196;-81
2022/04/01 14:40:19;;;;;;;6.85;2.75;;;3.40;99.90;;;;;;6753966;88;20186;-81
2022/04/01 14:50:19;;;;;;;6.62;3.40;;;3.40;99.90;;;;;;6760240;88;20207;-81
2022/04/01 15:00:20;;;;;;;6.62;3.30;;;3.20;99.90;;;;;;6778561;88;20741;-81
2022/04/01 15:10:21;;;;;;;6.40;3.80;;;3.10;99.90;;;;;;6779440;88;20249;-81
2022/04/01 15:20:21;;;;;;;5.47;3.15;;;3.10;99.90;;;;;;6776969;88;20673;-81
2022/04/01 15:30:22;;;;;;;5.43;3.08;;;2.90;99.90;;;;;;6781285;88;20160;-81
2022/04/01 15:40:22;;;;;;;4.97;3.03;;;2.90;99.90;;;;;;6763382;87;20205;-81
2022/04/01 15:50:24;;;;;;;5.47;3.00;;;2.70;99.90;;;;;;6781077;88;20763;-81
2022/04/01 16:00:25;;;;;;;6.12;3.58;;;2.70;99.90;;;;;;6780981;87;20496;-79
2022/04/01 16:10:28;;;;;;;7.15;3.53;;;2.70;99.90;;;;;;6782052;87;20202;-81
2022/04/01 16:20:29;;;;;;;7.10;3.53;;;2.70;99.90;;;;;;6785572;87;20175;-80
2022/04/01 16:30:31;;;;;;;7.70;4.35;;;2.40;99.90;;;;;;6784095;87;20164;-81
2022/04/01 16:40:31;;;;;;;7.15;4.28;;;2.30;99.90;;;;;;6777978;87;20179;-80
2022/04/01 16:50:32;;;;;;;8.15;3.95;;;2.20;99.90;;;;;;6779268;87;20180;-81
2022/04/01 17:00:33;;;;;;;6.20;3.20;;;2.10;99.90;;;;;;6778177;87;20351;-82
2022/04/01 17:20:44;;;;;;;6.60;3.17;;;2.10;99.90;;;;;;6783035;87;20253;-80
2022/04/01 17:30:49;;;;;;;5.40;2.87;;;2.00;99.90;;;;;;6766577;87;20305;-81
2022/04/01 17:40:51;;;;;;;6.50;3.00;;;1.90;99.90;;;;;;6764659;87;20657;-80
2022/04/01 17:50:51;;;;;;;8.63;4.80;;;1.90;99.90;;;;;;6761544;88;20184;-80
2022/04/01 18:00:52;;;;;;;6.75;4.72;;;2.00;99.90;;;;;;6764975;87;20803;-80
2022/04/01 18:10:54;;;;;;;9.57;5.30;;;1.70;99.90;;;;;;6764595;87;20820;-81
2022/04/01 18:20:54;;;;;;;9.90;6.22;;;1.50;99.90;;;;;;6760189;87;20201;-80
2022/04/01 18:31:01;;;;;;;16.70;9.38;;;1.60;99.90;;;;;;6755636;88;20206;-80
2022/04/01 18:41:03;;;;;;;;;;;1.50;99.90;;;;;;6759994;87;20173;-81
2022/04/01 18:51:06;;;;;;;20.23;12.73;;;1.40;99.90;;;;;;6758494;87;20079;-80
2022/04/01 19:01:11;;;;;;;24.37;14.73;;;1.30;99.90;;;;;;6760165;88;20694;-80
2022/04/01 19:11:28;;;;;;;24.23;15.50;;;1.30;99.90;;;;;;6753974;88;20189;-79
2022/04/01 19:21:31;;;;;;;28.85;16.62;;;1.30;99.90;;;;;;6747328;88;20264;-79
2022/04/01 19:31:31;;;;;;;28.92;19.10;;;1.30;99.90;;;;;;6746047;88;20202;-80
2022/04/01 19:41:32;;;;;;;33.20;19.77;;;1.40;99.90;;;;;;6746135;88;20657;-80
2022/04/01 19:51:33;;;;;;;31.95;18.98;;;1.20;99.90;;;;;;6744354;88;20222;-80
2022/04/01 20:01:34;;;;;;;29.67;17.37;;;1.30;99.90;;;;;;6745262;88;20287;-80
2022/04/01 20:11:35;;;;;;;28.62;17.25;;;1.20;99.90;;;;;;6747303;88;22838;-80
2022/04/01 20:21:36;;;;;;;27.85;17.45;;;1.20;99.90;;;;;;6751190;88;20264;-79
2022/04/01 20:31:36;;;;;;;24.98;15.35;;;1.20;99.90;;;;;;6747409;88;20214;-79
2022/04/01 20:41:38;;;;;;;21.67;14.13;;;1.30;99.90;;;;;;6747966;88;20208;-80
2022/04/01 20:51:39;;;;;;;22.05;13.50;;;1.40;99.90;;;;;;6746475;88;20184;-79
2022/04/01 21:01:39;;;;;;;20.05;13.98;;;1.40;99.90;;;;;;6744143;88;20229;-78
2022/04/01 21:11:40;;;;;;;23.05;14.70;;;1.30;99.90;;;;;;6752400;88;20200;-79
2022/04/01 21:21:41;;;;;;;18.27;12.82;;;1.30;99.90;;;;;;6751860;88;20211;-77
2022/04/01 21:31:41;;;;;;;20.35;13.40;;;1.30;99.90;;;;;;6741047;88;20297;-78
2022/04/01 21:41:42;;;;;;;20.70;12.57;;;1.20;99.90;;;;;;6759853;88;20207;-79
2022/04/01 21:51:42;;;;;;;20.55;12.80;;;1.30;99.90;;;;;;6757830;88;20600;-79
2022/04/01 22:01:45;;;;;;;23.17;13.95;;;1.30;99.90;;;;;;6759179;88;20187;-78
2022/04/01 22:11:47;;;;;;;19.80;12.55;;;1.20;99.90;;;;;;6753128;88;20248;-79
2022/04/01 22:21:49;;;;;;;18.65;12.18;;;1.20;99.90;;;;;;6744762;88;20221;-79
2022/04/01 22:31:49;;;;;;;20.15;12.48;;;1.20;99.90;;;;;;6744869;88;20303;-79
2022/04/01 22:41:50;;;;;;;19.85;12.32;;;1.20;99.90;;;;;;6746094;88;20388;-77
2022/04/01 23:02:09;;;;;;;17.65;10.80;;;1.20;99.90;;;;;;6746244;88;20153;-78
2022/04/01 23:12:10;;;;;;;18.08;11.12;;;1.20;99.90;;;;;;6741993;88;20209;-78
2022/04/01 23:22:11;;;;;;;16.70;10.48;;;1.20;99.90;;;;;;6746478;88;20176;-78
2022/04/01 23:32:12;;;;;;;17.60;11.35;;;1.10;99.90;;;;;;6745734;88;20205;-78
2022/04/01 23:42:13;;;;;;;17.35;11.25;;;1.10;99.90;;;;;;6745705;88;20209;-79
2022/04/01 23:52:13;;;;;;;16.17;10.63;;;1.20;99.90;;;;;;6748233;88;20516;-78
